Time;durP1;ratioP1;P1;durP2;ratioP2;P2;SDS_P1;SDS_P2;PMS_P1;PMS_P2;Temp;Humidity;BMP_temperature;BMP_pressure;BME280_temperature;BME280_humidity;BME280_pressure;Samples;Min_cycle;Max_cycle;Signal;HPM_P1;HPM_P2
2022/03/05 00:00:20;;;;;;;32.23;16.13;;;;;;;1.16;68.77;101941.41;5031887;28;20461;-50
2022/03/05 00:02:45;;;;;;;32.53;16.10;;;;;;;1.10;68.74;101942.56;5031986;28;20562;-52
2022/03/05 00:05:12;;;;;;;30.70;15.47;;;;;;;1.04;69.05;101942.84;5031704;28;20040;-53
2022/03/05 00:07:38;;;;;;;31.77;16.57;;;;;;;1.05;69.76;101934.09;5035592;28;20061;-52
2022/03/05 00:10:03;;;;;;;33.00;16.33;;;;;;;1.04;69.51;101942.84;5029806;28;20068;-52
2022/03/05 00:12:29;;;;;;;35.37;17.27;;;;;;;1.00;69.83;101941.28;5036867;28;20437;-54
2022/03/05 00:14:56;;;;;;;34.00;17.07;;;;;;;0.94;70.08;101951.09;5030079;28;20439;-53
2022/03/05 00:17:21;;;;;;;34.77;17.60;;;;;;;0.87;70.41;101949.69;5030922;28;20121;-50
2022/03/05 00:19:46;;;;;;;31.60;16.83;;;;;;;0.88;69.90;101948.78;5030014;28;20096;-54
2022/03/05 00:22:12;;;;;;;36.07;17.37;;;;;;;0.92;69.98;101959.91;5030985;28;20120;-52
2022/03/05 00:24:37;;;;;;;36.07;18.30;;;;;;;0.87;70.28;101947.09;5030830;28;20034;-53
2022/03/05 00:27:04;;;;;;;37.10;18.40;;;;;;;0.86;70.27;101961.06;5031443;28;20072;-52
2022/03/05 00:29:29;;;;;;;37.23;19.13;;;;;;;0.75;70.94;101953.69;5034968;28;20033;-50
2022/03/05 00:31:54;;;;;;;34.80;18.30;;;;;;;0.78;70.69;101952.72;5031406;28;20039;-52
2022/03/05 00:34:20;;;;;;;37.77;18.37;;;;;;;0.77;70.71;101951.03;5030989;28;20041;-52
2022/03/05 00:36:45;;;;;;;37.43;19.07;;;;;;;0.70;70.76;101949.63;5031320;28;20041;-51
2022/03/05 00:39:10;;;;;;;33.97;18.90;;;;;;;0.74;71.39;101951.19;5030650;28;20084;-52
2022/03/05 00:41:35;;;;;;;40.20;19.17;;;;;;;0.69;71.33;101947.94;5031005;28;20483;-50
2022/03/05 00:44:01;;;;;;;37.23;19.57;;;;;;;0.63;71.50;101949.91;5031111;28;20021;-51
2022/03/05 00:46:26;;;;;;;38.80;19.00;;;;;;;0.64;71.44;101945.53;5031160;28;20033;-52
2022/03/05 00:48:53;;;;;;;37.47;19.70;;;;;;;0.59;72.11;101948.31;5030785;28;20073;-54
2022/03/05 00:51:18;;;;;;;41.17;20.87;;;;;;;0.58;71.83;101945.81;5031574;28;20080;-52
2022/03/05 00:53:44;;;;;;;38.47;19.37;;;;;;;0.55;72.03;101945.94;5031142;28;20453;-53
2022/03/05 00:56:09;;;;;;;41.63;21.17;;;;;;;0.53;71.91;101944.25;5031670;28;20036;-52
2022/03/05 00:58:34;;;;;;;41.63;21.03;;;;;;;0.51;72.28;101942.63;5030774;28;20033;-49
2022/03/05 01:00:59;;;;;;;40.90;20.47;;;;;;;0.45;72.89;101948.09;5021734;28;20480;-51
2022/03/05 01:03:25;;;;;;;39.57;20.90;;;;;;;0.42;72.82;101943.00;5034671;28;20079;-52
2022/03/05 01:05:50;;;;;;;42.77;21.30;;;;;;;0.40;72.35;101949.16;5034110;28;20469;-52
2022/03/05 01:08:16;;;;;;;41.70;21.53;;;;;;;0.40;73.40;101946.53;5034578;28;20076;-52
2022/03/05 01:10:41;;;;;;;41.93;21.13;;;;;;;0.36;73.29;101950.22;5034883;28;20037;-54
2022/03/05 01:13:06;;;;;;;42.83;21.97;;;;;;;0.35;73.23;101945.88;5034911;28;20026;-51
2022/03/05 01:15:31;;;;;;;43.50;22.20;;;;;;;0.35;73.21;101945.06;5034958;28;20434;-51
2022/03/05 01:17:57;;;;;;;39.50;21.10;;;;;;;0.34;73.19;101938.97;5034373;28;20460;-54
2022/03/05 01:20:23;;;;;;;43.43;22.30;;;;;;;0.35;73.46;101945.06;5034659;28;20113;-53
2022/03/05 01:22:48;;;;;;;43.03;23.07;;;;;;;0.33;73.00;101936.44;5033775;28;20037;-50
2022/03/05 01:25:13;;;;;;;43.40;22.53;;;;;;;0.31;73.73;101949.56;5038307;28;20125;-50
2022/03/05 01:27:38;;;;;;;41.43;22.20;;;;;;;0.25;73.07;101945.44;5027283;28;20059;-52
2022/03/05 01:30:04;;;;;;;44.30;22.77;;;;;;;0.23;73.82;101941.22;5034940;28;20036;-49
2022/03/05 01:32:30;;;;;;;44.63;22.97;;;;;;;0.20;73.40;101941.34;5034383;28;20029;-51
2022/03/05 01:34:55;;;;;;;43.00;22.33;;;;;;;0.21;73.50;101937.81;5033456;28;20057;-52
2022/03/05 01:37:20;;;;;;;43.70;22.83;;;;;;;0.12;73.61;101933.84;5034187;28;20025;-50
2022/03/05 01:39:45;;;;;;;45.00;23.70;;;;;;;0.12;74.42;101939.06;5032770;28;20036;-54
2022/03/05 01:42:11;;;;;;;46.63;23.87;;;;;;;0.05;74.39;101948.91;5034166;28;20029;-49
2022/03/05 01:44:36;;;;;;;42.83;23.07;;;;;;;-0.01;74.06;101939.59;5030820;28;20104;-52
2022/03/05 01:47:03;;;;;;;45.20;24.27;;;;;;;-0.06;74.51;101936.31;5032566;28;20048;-53
2022/03/05 01:49:29;;;;;;;46.57;23.60;;;;;;;-0.06;74.31;101945.91;5032630;28;20025;-52
2022/03/05 01:51:56;;;;;;;44.97;23.20;;;;;;;-0.04;74.53;101944.09;5033818;28;20492;-51
2022/03/05 01:54:21;;;;;;;44.53;23.93;;;;;;;-0.05;74.71;101942.41;5032102;28;20404;-54
2022/03/05 01:56:47;;;;;;;44.90;23.37;;;;;;;-0.04;74.40;101936.28;5033234;28;20033;-51
2022/03/05 01:59:12;;;;;;;41.57;22.93;;;;;;;-0.09;74.35;101935.63;5032695;28;20029;-51
2022/03/05 02:01:38;;;;;;;46.03;24.23;;;;;;;-0.16;74.62;101941.09;5033783;28;20087;-53
2022/03/05 02:04:04;;;;;;;46.30;24.40;;;;;;;-0.18;74.97;101939.44;5032331;28;20510;-52
2022/03/05 02:06:29;;;;;;;44.07;23.33;;;;;;;-0.19;74.49;101941.19;5033624;28;20072;-54
2022/03/05 02:08:56;;;;;;;45.70;22.97;;;;;;;-0.27;74.66;101938.06;5032422;28;20370;-53
2022/03/05 02:11:21;;;;;;;47.40;24.63;;;;;;;-0.24;74.73;101937.09;5032256;28;20017;-53
2022/03/05 02:13:47;;;;;;;44.07;24.17;;;;;;;-0.29;74.44;101938.13;5033149;28;20052;-54
2022/03/05 02:16:12;;;;;;;48.03;24.13;;;;;;;-0.27;74.86;101943.28;5031820;28;20033;-53
2022/03/05 02:18:38;;;;;;;44.63;23.43;;;;;;;-0.28;75.20;101933.78;5032200;28;20053;-52
2022/03/05 02:21:04;;;;;;;48.10;24.30;;;;;;;-0.28;75.22;101933.78;5033331;28;20447;-52
2022/03/05 02:23:29;;;;;;;50.67;24.90;;;;;;;-0.33;75.75;101928.75;5032742;28;20028;-53
2022/03/05 02:25:57;;;;;;;48.43;25.50;;;;;;;-0.38;75.62;101930.72;5031527;28;20025;-52
2022/03/05 02:28:23;;;;;;;50.07;25.07;;;;;;;-0.41;75.75;101931.69;5031886;28;20032;-51
2022/03/05 02:30:49;;;;;;;49.97;24.83;;;;;;;-0.48;75.84;101930.25;5033139;28;20025;-50
2022/03/05 02:33:15;;;;;;;52.77;26.10;;;;;;;-0.53;75.94;101921.75;5031965;28;20487;-53
2022/03/05 02:35:43;;;;;;;49.73;25.10;;;;;;;-0.57;76.48;101914.97;5032728;28;20087;-53
2022/03/05 02:38:09;;;;;;;50.43;25.13;;;;;;;-0.57;76.30;101917.56;5031650;28;20507;-50
2022/03/05 02:40:35;;;;;;;48.20;25.53;;;;;;;-0.63;76.34;101910.84;5028840;28;20029;-51
2022/03/05 02:43:00;;;;;;;49.70;24.93;;;;;;;-0.64;76.48;101913.53;5031058;28;20057;-51
2022/03/05 02:45:25;;;;;;;46.93;24.20;;;;;;;-0.62;76.82;101916.91;5031158;28;20048;-52
2022/03/05 02:47:50;;;;;;;49.23;24.67;;;;;;;-0.66;76.56;101920.56;5031491;28;20029;-52
2022/03/05 02:50:16;;;;;;;47.93;25.83;;;;;;;-0.75;76.38;101919.16;5033003;28;20026;-53
2022/03/05 02:52:41;;;;;;;51.23;26.40;;;;;;;-0.77;76.44;101929.63;5037360;28;20033;-53
2022/03/05 02:55:07;;;;;;;48.30;26.00;;;;;;;-0.77;77.19;101920.97;5034604;28;20420;-52
2022/03/05 02:57:32;;;;;;;48.53;25.30;;;;;;;-0.81;77.00;101922.84;5032222;28;20045;-53
2022/03/05 02:59:57;;;;;;;48.50;26.27;;;;;;;-0.96;77.01;101927.75;5032746;28;20033;-52
2022/03/05 03:02:23;;;;;;;48.40;25.23;;;;;;;-0.89;77.42;101927.53;5029487;28;20389;-53
2022/03/05 03:04:48;;;;;;;50.47;25.87;;;;;;;-0.92;77.66;101925.03;5031664;28;20057;-53
2022/03/05 03:07:14;;;;;;;51.13;26.27;;;;;;;-0.87;77.46;101925.69;5030802;28;20061;-53
2022/03/05 03:09:39;;;;;;;48.63;25.23;;;;;;;-0.90;77.33;101928.44;5032349;28;20365;-52
2022/03/05 03:12:04;;;;;;;47.20;25.10;;;;;;;-1.01;77.15;101924.47;5032115;28;20036;-52
2022/03/05 03:14:30;;;;;;;52.73;25.80;;;;;;;-1.01;77.55;101929.69;5031952;28;20025;-51
2022/03/05 03:16:55;;;;;;;48.80;25.47;;;;;;;-0.96;77.49;101926.91;5029348;28;20064;-51
2022/03/05 03:19:21;;;;;;;51.23;25.50;;;;;;;-0.96;77.06;101919.94;5029634;28;20044;-51
2022/03/05 03:21:46;;;;;;;49.27;25.13;;;;;;;-1.01;77.00;101915.81;5029021;28;20080;-52
2022/03/05 03:24:12;;;;;;;51.10;25.77;;;;;;;-1.11;77.30;101921.38;5029760;28;20041;-54
2022/03/05 03:26:37;;;;;;;50.03;26.23;;;;;;;-1.18;77.87;101914.69;5030629;28;20022;-51
2022/03/05 03:29:03;;;;;;;50.43;26.23;;;;;;;-1.20;77.88;101924.31;5030633;28;20025;-52
2022/03/05 03:31:28;;;;;;;52.40;26.90;;;;;;;-1.31;78.48;101919.53;5030986;28;20033;-53
2022/03/05 03:33:53;;;;;;;50.87;26.00;;;;;;;-1.30;78.38;101921.22;5030755;28;20040;-52
2022/03/05 03:36:19;;;;;;;49.70;27.00;;;;;;;-1.29;78.50;101922.09;5030524;28;20446;-50
2022/03/05 03:38:44;;;;;;;49.60;26.47;;;;;;;-1.30;78.24;101916.00;5031406;28;20041;-54
2022/03/05 03:41:09;;;;;;;52.10;26.53;;;;;;;-1.25;78.62;101906.28;5037561;28;20029;-52
2022/03/05 03:43:34;;;;;;;48.87;25.70;;;;;;;-1.27;77.97;101904.63;5035073;28;20083;-53
2022/03/05 03:46:00;;;;;;;54.77;26.70;;;;;;;-1.19;78.34;101907.78;5032288;28;20033;-50
2022/03/05 03:48:25;;;;;;;51.40;25.87;;;;;;;-1.24;77.80;101907.97;5031140;28;20360;-51
2022/03/05 03:50:50;;;;;;;45.77;25.07;;;;;;;-1.21;77.91;101914.81;5031363;28;20040;-52
2022/03/05 03:53:16;;;;;;;49.27;25.80;;;;;;;-1.19;78.05;101920.81;5029919;28;20488;-53
2022/03/05 03:55:41;;;;;;;49.87;26.43;;;;;;;-1.23;78.26;101924.44;5031477;28;20068;-57
2022/03/05 03:58:06;;;;;;;51.10;26.20;;;;;;;-1.26;78.01;101924.56;5029304;28;20033;-50
2022/03/05 04:00:32;;;;;;;49.73;25.37;;;;;;;-1.25;78.17;101927.09;5030987;28;20029;-52
2022/03/05 04:02:57;;;;;;;52.33;26.03;;;;;;;-1.26;77.53;101914.13;5031300;28;20098;-55
2022/03/05 04:05:22;;;;;;;48.20;24.93;;;;;;;-1.20;78.10;101910.47;5030777;28;20056;-51
2022/03/05 04:10:32;;;;;;;52.93;26.27;;;;;;;-1.30;77.39;101921.22;5028062;28;20098;-52
2022/03/05 04:12:57;;;;;;;49.53;24.27;;;;;;;-1.36;77.01;101911.03;5031787;28;20021;-50
2022/03/05 04:15:23;;;;;;;51.60;25.53;;;;;;;-1.41;78.24;101923.38;5030823;28;20494;-53
2022/03/05 04:17:48;;;;;;;51.23;26.07;;;;;;;-1.47;78.27;101918.38;5029982;28;20138;-53
2022/03/05 04:20:13;;;;;;;50.50;25.43;;;;;;;-1.45;79.12;101921.78;5030460;28;20025;-52
2022/03/05 04:22:39;;;;;;;52.67;26.10;;;;;;;-1.46;78.70;101920.09;5031054;28;20444;-52
2022/03/05 04:25:04;;;;;;;50.13;25.43;;;;;;;-1.53;78.51;101917.69;5029631;28;20065;-50
2022/03/05 04:27:30;;;;;;;52.00;25.97;;;;;;;-1.47;78.28;101923.59;5029896;28;20109;-49
2022/03/05 04:29:55;;;;;;;54.43;25.90;;;;;;;-1.47;78.48;101921.84;5029753;28;20095;-51
2022/03/05 04:32:20;;;;;;;55.40;26.93;;;;;;;-1.54;78.76;101921.22;5031221;28;20091;-51
2022/03/05 04:34:45;;;;;;;51.63;27.20;;;;;;;-1.51;79.06;101921.13;5036242;28;20468;-51
2022/03/05 04:37:11;;;;;;;53.77;27.07;;;;;;;-1.47;78.85;101923.59;5034423;28;20029;-53
2022/03/05 04:39:36;;;;;;;49.63;25.07;;;;;;;-1.52;79.03;101929.81;5034004;28;20053;-52
2022/03/05 04:42:02;;;;;;;49.40;25.10;;;;;;;-1.53;79.05;101928.09;5034633;28;20067;-53
2022/03/05 04:44:27;;;;;;;51.23;25.80;;;;;;;-1.57;78.96;101934.34;5035083;28;20032;-51
2022/03/05 04:46:52;;;;;;;53.47;24.83;;;;;;;-1.57;78.90;101934.34;5034302;28;20387;-50
2022/03/05 04:49:17;;;;;;;49.50;25.77;;;;;;;-1.59;79.43;101935.31;5033873;28;20052;-51
2022/03/05 04:51:43;;;;;;;56.23;26.33;;;;;;;-1.63;79.41;101926.75;5034118;28;20052;-50
2022/03/05 04:54:08;;;;;;;49.97;25.70;;;;;;;-1.62;79.04;101933.66;5034506;28;20104;-50
2022/03/05 04:56:33;;;;;;;50.30;24.80;;;;;;;-1.64;78.73;101933.72;5034110;28;20032;-49
2022/03/05 04:58:59;;;;;;;50.00;25.50;;;;;;;-1.62;79.22;101931.06;5034018;28;20018;-51
2022/03/05 05:01:24;;;;;;;52.50;25.37;;;;;;;-1.63;79.22;101950.19;5023840;28;20407;-50
2022/03/05 05:03:50;;;;;;;54.03;25.50;;;;;;;-1.65;79.61;101941.56;5031909;28;20494;-51
2022/03/05 05:06:15;;;;;;;51.20;25.43;;;;;;;-1.68;79.67;101946.88;5032333;28;20068;-51
2022/03/05 05:08:41;;;;;;;56.20;26.27;;;;;;;-1.71;79.83;101940.03;5033028;28;20030;-52
2022/03/05 05:11:06;;;;;;;52.80;25.63;;;;;;;-1.71;79.64;101941.78;5033083;28;20021;-50
2022/03/05 05:13:31;;;;;;;54.20;26.10;;;;;;;-1.74;79.89;101936.69;5032995;28;20285;-52
2022/03/05 05:15:57;;;;;;;55.07;26.77;;;;;;;-1.81;79.82;101941.25;5039996;28;20033;-50
2022/03/05 05:18:23;;;;;;;52.40;25.37;;;;;;;-1.85;80.08;101935.31;5033563;28;20041;-53
2022/03/05 05:20:48;;;;;;;54.07;25.67;;;;;;;-1.82;79.95;101940.38;5035866;28;20060;-49
2022/03/05 05:23:14;;;;;;;53.60;26.00;;;;;;;-1.80;80.11;101937.75;5033350;28;20152;-52
2022/03/05 05:25:41;;;;;;;54.53;25.27;;;;;;;-1.82;80.14;101937.78;5029437;28;20037;-49
2022/03/05 05:28:06;;;;;;;54.37;25.93;;;;;;;-1.83;80.03;101946.50;5032173;28;20030;-53
2022/03/05 05:30:32;;;;;;;52.17;25.70;;;;;;;-1.83;80.09;101943.91;5031263;28;20044;-49
2022/03/05 05:32:57;;;;;;;52.97;26.23;;;;;;;-1.89;80.65;101941.50;5032847;28;20105;-51
2022/03/05 05:35:22;;;;;;;53.50;24.90;;;;;;;-1.89;80.04;101951.91;5033337;28;20029;-51
2022/03/05 05:37:48;;;;;;;53.70;26.40;;;;;;;-1.93;80.28;101958.13;5032297;28;20033;-53
2022/03/05 05:40:13;;;;;;;52.70;25.67;;;;;;;-1.97;80.74;101957.38;5032964;28;20647;-50
2022/03/05 05:42:38;;;;;;;55.57;26.60;;;;;;;-1.95;80.56;101965.13;5033395;28;20088;-50
2022/03/05 05:45:05;;;;;;;53.77;26.20;;;;;;;-1.97;80.67;101961.75;5031918;28;20384;-50
2022/03/05 05:47:30;;;;;;;53.67;24.77;;;;;;;-1.97;80.66;101964.34;5033250;28;20428;-50
2022/03/05 05:49:55;;;;;;;57.93;26.37;;;;;;;-2.04;81.12;101961.94;5033275;28;20041;-53
2022/03/05 05:52:21;;;;;;;54.73;26.47;;;;;;;-2.01;80.82;101970.53;5031587;28;20151;-51
2022/03/05 05:54:46;;;;;;;52.77;25.90;;;;;;;-2.07;81.08;101969.81;5032630;28;20029;-50
2022/03/05 05:57:11;;;;;;;56.67;26.37;;;;;;;-2.08;81.35;101965.53;5033413;28;20057;-50
2022/03/05 05:59:37;;;;;;;57.57;26.33;;;;;;;-2.08;80.99;101975.09;5033298;28;20037;-53
2022/03/05 06:02:02;;;;;;;55.40;26.40;;;;;;;-2.10;80.86;101969.94;5033169;28;20417;-48
2022/03/05 06:04:28;;;;;;;53.27;25.37;;;;;;;-2.07;81.09;101972.44;5028693;28;20026;-54
2022/03/05 06:06:53;;;;;;;53.53;25.17;;;;;;;-2.14;81.21;101963.16;5031696;28;20055;-52
2022/03/05 06:09:18;;;;;;;57.53;26.53;;;;;;;-2.17;81.31;101965.88;5032860;28;20495;-56
2022/03/05 06:11:44;;;;;;;57.10;26.27;;;;;;;-2.16;81.18;101967.56;5031666;28;20148;-49
2022/03/05 06:14:10;;;;;;;57.83;26.60;;;;;;;-2.16;81.20;101970.16;5027468;28;20084;-55
2022/03/05 06:16:36;;;;;;;55.70;26.13;;;;;;;-2.19;81.15;101968.50;5027946;28;20083;-53
2022/03/05 06:19:01;;;;;;;55.63;25.83;;;;;;;-2.18;81.41;101964.13;5023150;28;20472;-53
2022/03/05 06:21:26;;;;;;;52.43;25.70;;;;;;;-2.17;81.37;101968.47;5025575;28;20108;-58
2022/03/05 06:23:51;;;;;;;51.00;24.83;;;;;;;-2.16;81.60;101968.38;5027100;28;20033;-58
2022/03/05 06:26:18;;;;;;;56.63;26.03;;;;;;;-2.16;81.51;101959.75;5027392;28;20031;-58
2022/03/05 06:28:44;;;;;;;53.80;25.80;;;;;;;-2.19;81.57;101965.03;5026408;28;20033;-57
2022/03/05 06:31:09;;;;;;;54.30;26.67;;;;;;;-2.19;81.21;101972.84;5025863;28;20065;-58
2022/03/05 06:33:40;;;;;;;57.90;25.73;;;;;;;-2.19;81.78;101972.84;5026183;28;20049;-58
2022/03/05 06:36:06;;;;;;;53.63;25.53;;;;;;;-2.18;81.65;101979.72;5022920;28;20461;-58
2022/03/05 06:38:31;;;;;;;55.77;25.07;;;;;;;-2.19;81.24;101978.03;5027558;28;20116;-57
2022/03/05 06:40:57;;;;;;;56.27;25.83;;;;;;;-2.18;81.10;101982.31;5025996;28;20025;-58
2022/03/05 06:43:22;;;;;;;55.43;26.30;;;;;;;-2.21;81.47;101991.06;5026015;28;20075;-58
2022/03/05 06:45:49;;;;;;;54.13;25.53;;;;;;;-2.19;81.40;101980.63;5022166;28;20464;-53
2022/03/05 06:48:14;;;;;;;55.37;25.63;;;;;;;-2.19;81.27;101975.44;5021980;28;20029;-56
2022/03/05 06:50:39;;;;;;;54.13;25.33;;;;;;;-2.14;81.13;101986.53;5026150;28;20827;-57
2022/03/05 06:53:06;;;;;;;56.07;25.67;;;;;;;-2.13;81.32;101983.03;5032962;28;20037;-54
2022/03/05 06:55:32;;;;;;;53.10;25.73;;;;;;;-2.07;81.50;101982.81;5037013;28;20045;-56
2022/03/05 06:57:57;;;;;;;56.83;26.47;;;;;;;-2.09;81.29;101981.19;5039566;28;20063;-57
2022/03/05 07:00:22;;;;;;;57.07;26.43;;;;;;;-2.04;81.61;101972.34;5026370;28;20069;-56
2022/03/05 07:02:48;;;;;;;60.53;26.20;;;;;;;-1.97;81.29;101987.75;5029791;28;20029;-57
2022/03/05 07:05:14;;;;;;;57.40;25.57;;;;;;;-1.98;81.41;101991.25;5026030;28;20037;-56
2022/03/05 07:07:39;;;;;;;58.20;26.77;;;;;;;-1.94;81.59;101987.63;5030672;28;20053;-56
2022/03/05 07:10:05;;;;;;;60.63;26.90;;;;;;;-1.95;81.55;101996.31;5030188;28;20060;-57
2022/03/05 07:12:31;;;;;;;60.00;26.40;;;;;;;-1.92;81.95;101998.84;5031880;28;20094;-57
2022/03/05 07:14:58;;;;;;;54.07;26.67;;;;;;;-1.88;81.52;102000.41;5030379;28;20116;-56
2022/03/05 07:17:23;;;;;;;61.37;26.80;;;;;;;-1.91;81.84;102003.13;5038571;28;20041;-56
2022/03/05 07:19:48;;;;;;;59.27;26.40;;;;;;;-1.87;82.30;102009.94;5030020;28;20029;-55
2022/03/05 07:22:14;;;;;;;55.60;26.07;;;;;;;-1.81;81.60;102009.72;5040447;28;20037;-57
2022/03/05 07:24:39;;;;;;;62.30;26.77;;;;;;;-1.77;81.56;102010.47;5032829;28;20472;-57
2022/03/05 07:27:05;;;;;;;59.80;26.90;;;;;;;-1.72;81.60;102018.97;5030320;28;20067;-57
2022/03/05 07:29:30;;;;;;;54.57;25.43;;;;;;;-1.66;81.63;102010.09;5040873;28;20041;-57
2022/03/05 07:31:55;;;;;;;60.20;26.80;;;;;;;-1.68;81.60;102010.13;5036391;28;20038;-56
2022/03/05 07:34:21;;;;;;;58.93;27.10;;;;;;;-1.63;81.75;102017.81;5038666;28;20108;-52
2022/03/05 07:36:46;;;;;;;59.87;26.40;;;;;;;-1.56;81.56;102008.03;5029444;28;20476;-55
2022/03/05 07:39:12;;;;;;;61.10;27.30;;;;;;;-1.51;81.85;102011.31;5041071;28;20045;-54
2022/03/05 07:41:37;;;;;;;64.77;28.00;;;;;;;-1.49;81.97;102010.38;5038616;28;20033;-54
2022/03/05 07:44:04;;;;;;;62.47;27.80;;;;;;;-1.43;82.03;102018.84;5030653;28;20040;-55
2022/03/05 07:46:30;;;;;;;63.63;26.73;;;;;;;-1.40;82.10;102013.53;5039341;28;20033;-55
2022/03/05 07:48:55;;;;;;;57.47;26.73;;;;;;;-1.37;81.78;102014.28;5033757;28;20067;-56
2022/03/05 07:51:21;;;;;;;64.10;28.17;;;;;;;-1.32;81.75;102002.84;5033292;28;20487;-52
2022/03/05 07:53:46;;;;;;;64.13;27.87;;;;;;;-1.29;81.91;102005.38;5030959;28;20033;-54
2022/03/05 07:56:11;;;;;;;63.00;28.27;;;;;;;-1.24;82.20;102006.88;5025815;28;20030;-53
2022/03/05 07:58:36;;;;;;;57.10;26.37;;;;;;;-1.17;82.00;102014.47;5042647;28;20025;-55
2022/03/05 08:01:02;;;;;;;63.07;28.80;;;;;;;-1.08;82.21;102027.16;5027215;28;20423;-56
2022/03/05 08:03:27;;;;;;;63.83;28.90;;;;;;;-1.01;81.90;102023.41;5027871;28;20034;-57
2022/03/05 08:05:53;;;;;;;59.87;27.60;;;;;;;-0.94;81.55;102024.03;5026624;28;20121;-57
2022/03/05 08:08:18;;;;;;;61.73;28.53;;;;;;;-0.91;81.44;102031.75;5022932;28;20087;-57
2022/03/05 08:10:43;;;;;;;63.40;28.50;;;;;;;-0.89;81.58;102034.28;5026600;28;20345;-57
2022/03/05 08:13:09;;;;;;;64.03;27.93;;;;;;;-0.83;81.22;102034.06;5036834;28;20037;-56
2022/03/05 08:15:34;;;;;;;64.07;28.10;;;;;;;-0.82;80.72;102036.63;5030909;28;20034;-57
2022/03/05 08:18:00;;;;;;;57.57;26.87;;;;;;;-0.76;80.60;102035.53;5027826;28;20061;-55
2022/03/05 08:20:29;;;;;;;58.57;25.70;;;;;;;-0.74;80.36;102038.91;5029603;28;20499;-53
2022/03/05 08:22:54;;;;;;;59.43;26.63;;;;;;;-0.68;80.79;102041.28;5020985;28;20029;-57
2022/03/05 08:25:21;;;;;;;62.23;28.10;;;;;;;-0.58;81.03;102038.34;5030756;28;20037;-57
2022/03/05 08:27:47;;;;;;;62.67;27.80;;;;;;;-0.49;80.21;102040.56;5025177;28;20056;-58
2022/03/05 08:30:13;;;;;;;60.93;26.70;;;;;;;-0.39;80.64;102045.44;5027570;28;20034;-56
2022/03/05 08:32:38;;;;;;;58.40;27.30;;;;;;;-0.31;79.28;102043.38;5025254;28;20033;-57
2022/03/05 08:35:05;;;;;;;62.27;28.20;;;;;;;-0.32;79.30;102031.25;5040701;28;20036;-57
2022/03/05 08:37:32;;;;;;;65.23;27.87;;;;;;;-0.17;78.63;102043.69;5025213;28;20061;-57
2022/03/05 08:39:57;;;;;;;60.67;27.77;;;;;;;-0.06;78.88;102047.59;5029998;28;20480;-57
2022/03/05 08:42:23;;;;;;;60.67;28.03;;;;;;;-0.01;78.15;102043.06;5029305;28;20033;-57
2022/03/05 08:44:48;;;;;;;60.57;28.23;;;;;;;0.05;77.11;102042.81;5027338;28;20381;-57
2022/03/05 08:47:14;;;;;;;56.20;27.57;;;;;;;0.11;77.43;102037.34;5024374;28;20472;-56
2022/03/05 08:49:39;;;;;;;57.40;26.43;;;;;;;0.19;77.26;102044.00;5022276;28;20038;-57
2022/03/05 08:52:05;;;;;;;57.83;27.10;;;;;;;0.25;76.72;102046.38;5024253;28;20456;-57
2022/03/05 08:54:31;;;;;;;61.20;26.97;;;;;;;0.30;76.80;102047.00;5030095;28;20044;-57
2022/03/05 08:56:56;;;;;;;56.37;27.10;;;;;;;0.39;76.41;102049.22;5029763;28;20465;-56
2022/03/05 08:59:21;;;;;;;59.47;27.77;;;;;;;0.47;76.20;102042.84;5028291;28;20045;-57
2022/03/05 09:01:47;;;;;;;63.10;28.33;;;;;;;0.55;75.90;102045.97;5030185;28;20033;-57
2022/03/05 09:04:12;;;;;;;57.47;26.47;;;;;;;0.63;76.44;102043.88;5026874;28;20485;-57
2022/03/05 09:06:38;;;;;;;58.50;27.33;;;;;;;0.69;75.66;102052.38;5028023;28;20042;-57
2022/03/05 09:09:05;;;;;;;58.13;26.93;;;;;;;0.73;75.90;102051.31;5022376;28;20038;-57
2022/03/05 09:11:30;;;;;;;54.90;26.40;;;;;;;0.82;75.53;102050.91;5029221;28;20056;-58
2022/03/05 09:13:56;;;;;;;58.50;26.97;;;;;;;0.87;74.70;102050.69;5028530;28;20033;-56
2022/03/05 09:16:22;;;;;;;54.87;26.77;;;;;;;0.88;74.66;102048.03;5020967;28;20522;-56
2022/03/05 09:18:47;;;;;;;58.97;27.87;;;;;;;0.94;74.38;102045.13;5025310;28;20044;-57
2022/03/05 09:21:13;;;;;;;57.07;26.80;;;;;;;1.00;74.92;102045.78;5028369;28;20084;-57
2022/03/05 09:23:38;;;;;;;61.47;27.43;;;;;;;1.05;74.67;102039.41;5029747;28;20084;-57
2022/03/05 09:26:03;;;;;;;56.77;26.43;;;;;;;1.13;74.56;102036.47;5027808;28;20038;-57
2022/03/05 09:28:29;;;;;;;61.93;27.67;;;;;;;1.20;74.28;102035.25;5030501;28;20488;-57
2022/03/05 09:30:54;;;;;;;55.87;27.10;;;;;;;1.26;73.18;102036.75;5027240;28;20034;-57
2022/03/05 09:33:22;;;;;;;60.83;27.20;;;;;;;1.32;72.94;102035.59;5031749;28;20521;-58
2022/03/05 09:35:48;;;;;;;60.70;26.93;;;;;;;1.42;73.33;102042.13;5029858;28;20037;-57
2022/03/05 09:38:14;;;;;;;56.57;25.77;;;;;;;1.49;72.44;102027.00;5030741;28;20063;-54
2022/03/05 09:40:39;;;;;;;54.90;27.13;;;;;;;1.56;72.59;102032.75;5030391;28;20053;-55
2022/03/05 09:43:04;;;;;;;55.73;27.80;;;;;;;1.61;71.62;102030.78;5024199;28;20538;-53
2022/03/05 09:45:29;;;;;;;56.73;27.67;;;;;;;1.66;71.78;102033.16;5024935;28;20060;-56
2022/03/05 09:47:56;;;;;;;51.77;25.93;;;;;;;1.67;71.02;102030.50;5030054;28;20205;-54
2022/03/05 09:50:24;;;;;;;51.03;26.73;;;;;;;1.76;70.30;102033.59;5019675;28;20435;-54
2022/03/05 09:52:49;;;;;;;57.07;27.40;;;;;;;1.79;69.72;102031.69;5032932;28;20033;-56
2022/03/05 09:55:15;;;;;;;55.50;26.90;;;;;;;1.88;69.58;102028.59;5030079;28;20399;-54
2022/03/05 09:57:40;;;;;;;50.73;25.57;;;;;;;1.96;69.95;102020.38;5030471;28;20037;-54
2022/03/05 10:00:06;;;;;;;55.13;25.67;;;;;;;2.03;69.75;102028.78;5039113;28;20377;-54
2022/03/05 10:02:32;;;;;;;54.13;25.93;;;;;;;2.07;68.29;102032.09;5031480;28;20084;-55
2022/03/05 10:05:31;;;;;;;54.33;26.67;;;;;;;2.13;69.12;102032.63;5030130;28;20078;-54
2022/03/05 10:08:20;;;;;;;53.83;25.37;;;;;;;2.19;67.48;102031.47;5020798;28;20072;-55
2022/03/05 10:10:59;;;;;;;51.00;25.03;;;;;;;2.20;68.26;102025.31;5032274;28;20044;-52
2022/03/05 10:13:31;;;;;;;47.90;24.57;;;;;;;2.35;68.16;102031.53;5029118;28;20033;-54
2022/03/05 10:15:59;;;;;;;47.30;24.17;;;;;;;2.44;66.18;102030.22;5033893;28;20034;-55
2022/03/05 10:18:28;;;;;;;51.00;25.77;;;;;;;2.50;66.71;102034.28;5033600;28;20117;-54
2022/03/05 10:20:54;;;;;;;49.83;24.70;;;;;;;2.57;66.06;102035.69;5031319;28;20031;-53
2022/03/05 10:23:21;;;;;;;55.30;25.40;;;;;;;2.63;66.06;102029.28;5026040;28;20576;-55
2022/03/05 10:25:50;;;;;;;50.23;26.00;;;;;;;2.65;66.57;102016.94;5023397;28;20045;-55
2022/03/05 10:28:24;;;;;;;53.10;26.63;;;;;;;2.76;67.01;102019.00;5033030;28;20032;-55
2022/03/05 10:30:52;;;;;;;55.83;25.70;;;;;;;2.84;65.82;102011.59;5028833;28;20049;-54
2022/03/05 10:33:41;;;;;;;53.53;26.77;;;;;;;2.97;65.48;102022.25;5027750;28;20038;-56
2022/03/05 10:36:16;;;;;;;51.47;25.17;;;;;;;3.05;64.87;102024.44;5032640;28;20032;-55
2022/03/05 10:38:51;;;;;;;50.27;26.00;;;;;;;3.13;65.33;102027.53;5028322;28;20037;-55
2022/03/05 10:41:31;;;;;;;51.23;25.87;;;;;;;3.19;65.38;102021.94;5023218;28;20040;-55
2022/03/05 10:44:13;;;;;;;47.47;24.83;;;;;;;3.34;65.20;102025.50;5025846;28;20034;-55
2022/03/05 10:46:43;;;;;;;49.92;24.92;;;;;;;3.44;64.85;102027.59;5029165;28;20136;-55
2022/03/05 10:49:22;;;;;;;52.07;25.47;;;;;;;3.48;64.81;102016.03;5031939;28;20037;-55
2022/03/05 10:51:50;;;;;;;51.47;26.27;;;;;;;3.50;65.82;102019.38;5035197;28;20029;-54
2022/03/05 10:54:29;;;;;;;51.40;26.20;;;;;;;3.58;66.29;102022.44;5034952;28;20052;-54
2022/03/05 10:56:56;;;;;;;57.57;28.67;;;;;;;3.72;66.61;102024.28;5024274;28;20055;-56
2022/03/05 10:59:22;;;;;;;54.17;27.50;;;;;;;3.75;64.75;102023.28;5030464;28;20360;-55
2022/03/05 11:01:48;;;;;;;52.73;26.60;;;;;;;3.85;67.15;102028.84;5024746;28;20052;-55
2022/03/05 11:04:14;;;;;;;55.60;29.33;;;;;;;3.97;66.48;102022.03;5023877;28;20037;-54
2022/03/05 11:06:42;;;;;;;55.70;28.00;;;;;;;4.04;65.51;102028.59;5028005;28;20050;-54
2022/03/05 11:09:12;;;;;;;51.27;27.57;;;;;;;4.07;63.73;102028.44;5023584;28;20094;-57